Time;durP1;ratioP1;P1;durP2;ratioP2;P2;SDS_P1;SDS_P2;PMS_P1;PMS_P2;Temp;Humidity;BMP_temperature;BMP_pressure;BME280_temperature;BME280_humidity;BME280_pressure;Samples;Min_cycle;Max_cycle;Signal;HPM_P1;HPM_P2
2023/11/29 00:01:01;;;;;;;14.07;7.85;;;;;;;;;;4956828;29;20043;-93
2023/11/29 00:03:42;;;;;;;16.10;8.38;;;;;;;;;;4958291;29;20388;-91
2023/11/29 00:06:23;;;;;;;13.43;7.15;;;;;;;;;;4958802;28;20055;-91
2023/11/29 00:09:04;;;;;;;17.95;9.18;;;;;;;;;;4955806;28;20051;-92
2023/11/29 00:11:45;;;;;;;13.95;9.35;;;;;;;;;;4955118;29;20101;-92
2023/11/29 00:14:20;;;;;;;17.42;10.43;;;;;;;;;;4955356;28;20127;-92
2023/11/29 00:17:01;;;;;;;15.93;9.18;;;;;;;;;;4953900;28;20134;-91
2023/11/29 00:19:43;;;;;;;17.42;8.55;;;;;;;;;;4956726;28;20046;-92
2023/11/29 00:22:23;;;;;;;16.95;9.10;;;;;;;;;;4956042;29;20051;-92
2023/11/29 00:25:06;;;;;;;17.55;9.10;;;;;;;;;;4954406;29;20075;-92
2023/11/29 00:27:47;;;;;;;17.23;10.00;;;;;;;;;;4955197;28;20035;-92
2023/11/29 00:30:30;;;;;;;15.52;8.98;;;;;;;;;;4957160;28;20059;-92
2023/11/29 00:33:11;;;;;;;19.17;10.02;;;;;;;;;;4955402;28;20051;-92
2023/11/29 00:35:52;;;;;;;19.27;10.23;;;;;;;;;;4954864;28;20211;-91
2023/11/29 00:38:32;;;;;;;22.08;10.43;;;;;;;;;;4956606;28;20331;-91
2023/11/29 00:41:13;;;;;;;29.08;10.95;;;;;;;;;;4953937;28;20039;-91
2023/11/29 00:43:54;;;;;;;23.33;10.48;;;;;;;;;;4962094;28;20042;-92
2023/11/29 00:46:24;;;;;;;20.92;11.95;;;;;;;;;;5022589;23;20054;-91
2023/11/29 00:49:05;;;;;;;27.60;12.30;;;;;;;;;;4986313;28;20412;-91
2023/11/29 00:51:41;;;;;;;22.92;11.73;;;;;;;;;;4987235;28;20070;-92
2023/11/29 00:54:21;;;;;;;24.23;11.10;;;;;;;;;;4986911;28;20042;-92
2023/11/29 00:57:02;;;;;;;21.60;12.50;;;;;;;;;;4987511;28;20042;-91
2023/11/29 00:59:45;;;;;;;20.83;11.38;;;;;;;;;;4990539;28;20058;-90
2023/11/29 01:02:27;;;;;;;27.35;10.90;;;;;;;;;;4989174;28;20061;-91
2023/11/29 01:05:07;;;;;;;23.92;13.77;;;;;;;;;;4988500;28;20050;-91
2023/11/29 01:07:48;;;;;;;21.77;12.40;;;;;;;;;;4987015;28;20101;-91
2023/11/29 01:10:29;;;;;;;21.90;12.55;;;;;;;;;;4986747;28;20109;-90
2023/11/29 01:13:01;;;;;;;22.73;13.18;;;;;;;;;;4990997;28;20082;-91
2023/11/29 01:15:42;;;;;;;19.70;12.75;;;;;;;;;;4937316;29;20143;-91
2023/11/29 01:18:10;;;;;;;27.85;14.23;;;;;;;;;;4971546;28;20059;-91
2023/11/29 01:20:45;;;;;;;24.83;13.85;;;;;;;;;;4991279;28;20043;-91
2023/11/29 01:23:17;;;;;;;24.33;14.50;;;;;;;;;;4990395;28;20046;-91
2023/11/29 01:25:46;;;;;;;25.35;13.88;;;;;;;;;;4991945;28;20055;-90
2023/11/29 01:28:21;;;;;;;24.25;13.60;;;;;;;;;;4991379;28;20067;-90
2023/11/29 01:31:06;;;;;;;20.42;11.82;;;;;;;;;;4991362;28;20043;-90
2023/11/29 01:33:36;;;;;;;23.25;14.13;;;;;;;;;;4990579;28;20231;-91
2023/11/29 01:36:06;;;;;;;26.40;14.50;;;;;;;;;;4992577;28;20384;-91
2023/11/29 01:38:46;;;;;;;24.65;13.93;;;;;;;;;;4992457;28;20035;-90
2023/11/29 01:41:18;;;;;;;22.50;13.65;;;;;;;;;;4994960;28;20074;-91
2023/11/29 01:49:39;;;;;;;23.10;13.18;;;;;;;;;;4974751;28;20043;-91
2023/11/29 01:52:16;;;;;;;24.98;13.88;;;;;;;;;;4957992;29;20062;-92
2023/11/29 01:54:48;;;;;;;25.95;13.50;;;;;;;;;;4960320;28;20055;-89
2023/11/29 01:57:29;;;;;;;22.20;12.70;;;;;;;;;;4973587;28;20075;-91
2023/11/29 02:00:08;;;;;;;21.63;11.93;;;;;;;;;;4959144;28;20106;-90
2023/11/29 02:02:36;;;;;;;23.80;13.70;;;;;;;;;;4958687;28;20058;-90
2023/11/29 02:05:10;;;;;;;19.25;12.60;;;;;;;;;;4961474;28;20049;-90
2023/11/29 02:07:42;;;;;;;21.38;11.80;;;;;;;;;;4978818;28;20123;-90
2023/11/29 02:10:12;;;;;;;20.45;11.98;;;;;;;;;;4963180;28;20103;-91
2023/11/29 02:12:53;;;;;;;23.42;13.75;;;;;;;;;;4964319;28;20047;-90
2023/11/29 02:15:34;;;;;;;22.33;13.68;;;;;;;;;;4965131;28;20043;-91
2023/11/29 02:18:15;;;;;;;21.80;11.70;;;;;;;;;;4963954;28;20120;-91
2023/11/29 02:20:51;;;;;;;23.85;12.35;;;;;;;;;;4997412;23;20106;-91
2023/11/29 02:23:40;;;;;;;18.10;12.00;;;;;;;;;;4975299;28;20059;-91
2023/11/29 02:26:09;;;;;;;20.30;12.63;;;;;;;;;;4978227;28;20054;-90
2023/11/29 02:28:40;;;;;;;19.92;10.93;;;;;;;;;;4963033;28;20047;-90
2023/11/29 02:31:21;;;;;;;20.92;10.70;;;;;;;;;;4964011;28;20058;-89
2023/11/29 02:34:03;;;;;;;19.90;10.68;;;;;;;;;;4977617;28;20022;-91
2023/11/29 02:36:44;;;;;;;19.75;11.15;;;;;;;;;;4964261;28;20043;-91
2023/11/29 02:39:25;;;;;;;15.82;10.27;;;;;;;;;;4961216;29;20347;-91
2023/11/29 02:42:06;;;;;;;18.92;11.73;;;;;;;;;;4970999;29;20067;-91
2023/11/29 02:44:49;;;;;;;17.35;9.98;;;;;;;;;;4970127;29;20043;-91
2023/11/29 02:47:31;;;;;;;15.43;9.32;;;;;;;;;;4955713;29;20070;-91
2023/11/29 02:50:11;;;;;;;13.05;8.88;;;;;;;;;;4956984;29;20039;-91
2023/11/29 02:52:53;;;;;;;18.75;9.05;;;;;;;;;;4956165;29;20051;-91
2023/11/29 02:55:34;;;;;;;13.32;8.20;;;;;;;;;;4969346;29;20051;-91
2023/11/29 02:58:14;;;;;;;14.57;9.30;;;;;;;;;;4969641;29;20078;-89
2023/11/29 03:01:06;;;;;;;13.05;8.30;;;;;;;;;;4965108;28;20031;-91
2023/11/29 03:03:48;;;;;;;12.77;8.10;;;;;;;;;;4966616;28;20029;-90
2023/11/29 03:06:31;;;;;;;14.48;8.60;;;;;;;;;;4977602;28;20027;-91
2023/11/29 03:09:12;;;;;;;16.70;9.43;;;;;;;;;;4953066;29;20059;-91
2023/11/29 03:11:56;;;;;;;13.75;7.88;;;;;;;;;;4965950;29;20106;-91
2023/11/29 03:17:49;;;;;;;13.63;8.65;;;;;;;;;;4938168;29;20059;-91
2023/11/29 03:20:18;;;;;;;13.77;9.00;;;;;;;;;;4950042;29;20070;-91
2023/11/29 03:22:58;;;;;;;13.15;8.55;;;;;;;;;;4966250;29;20059;-91
2023/11/29 03:25:39;;;;;;;16.85;9.55;;;;;;;;;;4966381;29;20075;-91
2023/11/29 03:28:20;;;;;;;15.43;8.68;;;;;;;;;;4969857;28;20047;-90
2023/11/29 03:31:00;;;;;;;14.02;9.68;;;;;;;;;;4971151;29;20376;-91
2023/11/29 03:33:30;;;;;;;15.88;10.00;;;;;;;;;;4958774;29;20105;-91
2023/11/29 03:36:10;;;;;;;18.45;10.43;;;;;;;;;;4973826;28;20043;-91
2023/11/29 03:38:46;;;;;;;14.75;8.77;;;;;;;;;;4965080;29;20058;-90
2023/11/29 03:41:23;;;;;;;14.82;9.93;;;;;;;;;;4966361;29;20121;-90
2023/11/29 03:43:51;;;;;;;16.75;10.82;;;;;;;;;;4965876;29;20138;-90
2023/11/29 03:46:21;;;;;;;13.95;9.70;;;;;;;;;;4965549;29;20062;-91
2023/11/29 03:48:59;;;;;;;16.35;10.60;;;;;;;;;;4967732;29;20047;-91
2023/11/29 03:51:29;;;;;;;17.83;11.00;;;;;;;;;;4951686;29;20086;-91
2023/11/29 03:54:10;;;;;;;17.85;11.43;;;;;;;;;;4964940;29;20051;-91
2023/11/29 03:56:51;;;;;;;20.55;10.82;;;;;;;;;;4966112;29;20201;-91
2023/11/29 03:59:21;;;;;;;22.50;12.00;;;;;;;;;;4966908;28;20054;-91
2023/11/29 04:02:03;;;;;;;20.38;12.85;;;;;;;;;;4966003;29;20087;-91
2023/11/29 04:04:31;;;;;;;21.15;11.35;;;;;;;;;;4966530;29;20055;-92
2023/11/29 04:12:18;;;;;;;24.45;13.98;;;;;;;;;;4972882;28;20047;-90
2023/11/29 04:14:46;;;;;;;25.25;12.68;;;;;;;;;;4952062;28;20055;-90
2023/11/29 04:17:30;;;;;;;25.38;14.20;;;;;;;;;;4955396;28;20043;-91
2023/11/29 04:20:11;;;;;;;24.63;14.13;;;;;;;;;;4968593;28;20047;-89
2023/11/29 04:22:51;;;;;;;25.98;14.82;;;;;;;;;;4949736;28;20046;-91
2023/11/29 04:25:20;;;;;;;22.25;13.65;;;;;;;;;;4950408;29;20055;-91
2023/11/29 04:27:48;;;;;;;25.27;14.63;;;;;;;;;;4953097;28;20035;-91
2023/11/29 04:30:29;;;;;;;22.02;14.18;;;;;;;;;;4949025;29;20481;-90
2023/11/29 04:33:11;;;;;;;25.40;14.15;;;;;;;;;;4964100;28;20356;-91
2023/11/29 04:35:53;;;;;;;24.52;13.25;;;;;;;;;;4949223;28;20115;-91
2023/11/29 04:38:26;;;;;;;26.52;14.73;;;;;;;;;;4949637;28;20062;-91
2023/11/29 04:41:00;;;;;;;29.33;14.23;;;;;;;;;;4969493;28;20055;-90
2023/11/29 04:43:44;;;;;;;24.38;14.05;;;;;;;;;;4954518;28;20321;-91
2023/11/29 04:46:25;;;;;;;24.55;13.48;;;;;;;;;;4953250;28;20077;-90
2023/11/29 04:48:53;;;;;;;28.90;14.48;;;;;;;;;;4950284;29;20051;-90
2023/11/29 04:51:34;;;;;;;19.80;12.10;;;;;;;;;;4951625;28;20275;-91
2023/11/29 04:54:08;;;;;;;23.17;13.63;;;;;;;;;;4952491;28;20134;-91
2023/11/29 04:56:51;;;;;;;23.08;13.18;;;;;;;;;;4967855;28;20066;-91
2023/11/29 04:59:34;;;;;;;23.02;12.55;;;;;;;;;;4966640;28;20058;-91
2023/11/29 05:05:24;;;;;;;21.75;12.52;;;;;;;;;;4944388;29;20055;-91
2023/11/29 05:08:08;;;;;;;18.88;11.95;;;;;;;;;;4947888;29;20036;-92
2023/11/29 05:10:49;;;;;;;22.23;12.18;;;;;;;;;;4954844;29;20047;-91
2023/11/29 05:13:25;;;;;;;19.75;11.57;;;;;;;;;;4952415;29;20055;-92
2023/11/29 05:16:08;;;;;;;22.10;13.65;;;;;;;;;;4951700;29;20036;-91
2023/11/29 05:18:49;;;;;;;21.88;11.73;;;;;;;;;;4948591;29;20413;-91
2023/11/29 05:21:32;;;;;;;19.98;12.30;;;;;;;;;;4951068;29;20081;-91
2023/11/29 05:24:13;;;;;;;19.20;12.13;;;;;;;;;;4948797;29;20140;-91
2023/11/29 05:27:09;;;;;;;18.08;10.52;;;;;;;;;;4947978;29;20044;-92
2023/11/29 05:29:39;;;;;;;21.38;12.18;;;;;;;;;;4948850;29;20044;-91
2023/11/29 05:32:21;;;;;;;19.92;12.02;;;;;;;;;;4944878;29;20090;-92
2023/11/29 05:35:01;;;;;;;19.52;12.02;;;;;;;;;;4945088;29;20055;-90
2023/11/29 05:37:42;;;;;;;20.55;12.38;;;;;;;;;;4945934;29;20078;-91
2023/11/29 05:40:20;;;;;;;17.38;10.63;;;;;;;;;;4950653;29;20055;-91
2023/11/29 05:43:01;;;;;;;22.02;11.57;;;;;;;;;;4943648;29;20099;-92
2023/11/29 05:45:42;;;;;;;20.60;12.07;;;;;;;;;;4945165;29;20575;-91
2023/11/29 05:48:26;;;;;;;21.50;13.23;;;;;;;;;;4946561;29;20040;-91
2023/11/29 05:51:12;;;;;;;18.27;11.05;;;;;;;;;;4945958;29;20051;-91
2023/11/29 05:53:53;;;;;;;19.55;11.85;;;;;;;;;;4946632;29;20048;-91
2023/11/29 05:56:29;;;;;;;17.38;11.02;;;;;;;;;;4947751;29;20054;-90
2023/11/29 05:59:11;;;;;;;18.63;11.98;;;;;;;;;;4954145;29;20200;-91
2023/11/29 06:01:54;;;;;;;20.33;11.13;;;;;;;;;;4953732;29;20047;-90
2023/11/29 15:54:51;;;;;;;18.48;8.88;;;;;;;;;;4984901;28;20121;-91
2023/11/29 15:57:56;;;;;;;13.30;6.22;;;;;;;;;;4931299;28;20051;-91
2023/11/29 17:25:21;;;;;;;8.20;3.30;;;;;;;;;;4907874;29;20057;-92
2023/11/29 17:27:59;;;;;;;11.85;4.38;;;;;;;;;;4912735;29;20089;-92
2023/11/29 17:30:44;;;;;;;15.00;4.43;;;;;;;;;;4912483;29;20059;-92
2023/11/29 17:33:25;;;;;;;11.20;4.40;;;;;;;;;;4910153;29;20033;-91
2023/11/29 17:36:06;;;;;;;11.88;4.80;;;;;;;;;;4909876;29;20317;-90
2023/11/29 17:38:49;;;;;;;11.80;4.60;;;;;;;;;;4915998;29;20061;-90
2023/11/29 17:41:35;;;;;;;10.82;4.88;;;;;;;;;;4911372;29;20176;-92
2023/11/29 17:44:19;;;;;;;8.57;4.25;;;;;;;;;;4907123;29;20054;-92
2023/11/29 17:47:02;;;;;;;8.73;4.80;;;;;;;;;;4910395;29;20064;-91
2023/11/29 17:49:46;;;;;;;10.23;4.78;;;;;;;;;;4885135;29;20045;-91
2023/11/29 17:52:31;;;;;;;9.82;5.18;;;;;;;;;;4907857;29;20048;-90
2023/11/29 17:55:12;;;;;;;10.50;5.43;;;;;;;;;;4912584;29;20092;-91
2023/11/29 17:57:59;;;;;;;11.43;4.72;;;;;;;;;;4920468;29;20041;-91
2023/11/29 18:01:22;;;;;;;8.93;5.35;;;;;;;;;;4922503;29;20052;-91
2023/11/29 18:08:21;;;;;;;;;;;;;;;;;;;;;
2023/11/29 18:11:48;;;;;;;16.50;6.38;;;;;;;;;;4884792;29;20045;-93
2023/11/29 18:23:43;;;;;;;14.02;5.38;;;;;;;;;;5105685;23;20045;-92
2023/11/29 18:26:45;;;;;;;12.02;5.95;;;;;;;;;;5015927;28;20193;-91
2023/11/29 18:29:38;;;;;;;13.95;4.93;;;;;;;;;;5016605;28;20061;-91
2023/11/29 18:32:52;;;;;;;14.90;6.60;;;;;;;;;;5016639;28;20038;-92
2023/11/29 18:35:45;;;;;;;11.77;5.18;;;;;;;;;;5015507;28;20027;-91
2023/11/29 18:39:00;;;;;;;;;;;;;;;;;;;;;
2023/11/29 18:42:13;;;;;;;18.83;6.75;;;;;;;;;;5015608;28;20047;-92
2023/11/29 19:29:37;;;;;;;25.50;9.32;;;;;;;;;;4971390;28;20562;-91
2023/11/29 19:32:19;;;;;;;21.35;8.70;;;;;;;;;;4955203;29;20113;-91
2023/11/29 19:35:04;;;;;;;18.77;8.55;;;;;;;;;;4971813;29;20107;-91
2023/11/29 19:37:46;;;;;;;36.40;11.73;;;;;;;;;;4957994;29;20070;-91
2023/11/29 19:40:28;;;;;;;26.58;11.25;;;;;;;;;;4958822;29;20043;-92
2023/11/29 19:43:13;;;;;;;21.20;8.13;;;;;;;;;;4972963;29;20351;-90
2023/11/29 19:45:58;;;;;;;20.45;9.50;;;;;;;;;;4962072;28;20111;-90
2023/11/29 19:48:34;;;;;;;18.00;8.25;;;;;;;;;;4958610;29;20054;-91
2023/11/29 19:51:23;;;;;;;18.25;7.45;;;;;;;;;;4972642;29;20074;-91
2023/11/29 19:54:05;;;;;;;22.38;7.90;;;;;;;;;;4959667;29;20057;-91
2023/11/29 19:56:50;;;;;;;19.73;8.68;;;;;;;;;;4974809;29;20218;-91
2023/11/29 19:59:35;;;;;;;15.52;7.15;;;;;;;;;;4953521;29;20474;-92
2023/11/29 20:02:16;;;;;;;18.27;8.57;;;;;;;;;;4954421;28;20075;-91
2023/11/29 20:04:58;;;;;;;15.52;6.20;;;;;;;;;;4954286;29;20379;-90
2023/11/29 20:07:42;;;;;;;13.05;6.50;;;;;;;;;;4953469;29;20058;-91
2023/11/29 20:10:26;;;;;;;14.55;6.35;;;;;;;;;;5280968;23;20062;-91
2023/11/29 20:13:08;;;;;;;10.60;4.93;;;;;;;;;;5010850;28;20054;-90
2023/11/29 20:15:57;;;;;;;11.80;5.30;;;;;;;;;;5005326;28;20026;-92
2023/11/29 20:18:38;;;;;;;15.60;5.88;;;;;;;;;;5008410;28;20034;-92
2023/11/29 20:21:23;;;;;;;13.68;6.05;;;;;;;;;;5007607;28;20103;-92
2023/11/29 20:24:06;;;;;;;15.93;7.03;;;;;;;;;;5007980;28;20034;-92
2023/11/29 20:26:53;;;;;;;10.00;5.18;;;;;;;;;;5007481;28;20058;-90
2023/11/29 20:29:37;;;;;;;10.95;5.63;;;;;;;;;;5008739;28;20040;-90
2023/11/29 20:32:22;;;;;;;18.77;6.65;;;;;;;;;;5006341;28;20050;-91
2023/11/29 20:35:06;;;;;;;12.82;5.93;;;;;;;;;;5012941;28;20030;-91
2023/11/29 20:37:56;;;;;;;14.55;5.78;;;;;;;;;;5010492;28;20042;-91
2023/11/29 20:40:45;;;;;;;12.90;7.00;;;;;;;;;;5009478;28;20107;-91
2023/11/29 20:43:29;;;;;;;16.17;6.60;;;;;;;;;;5008024;28;20401;-91
2023/11/29 20:46:11;;;;;;;14.65;6.43;;;;;;;;;;5008591;28;20042;-91
2023/11/29 20:48:56;;;;;;;18.40;7.47;;;;;;;;;;5008296;28;20050;-91
2023/11/29 20:51:56;;;;;;;15.52;7.40;;;;;;;;;;5008399;28;20053;-91
2023/11/29 20:54:40;;;;;;;11.02;6.03;;;;;;;;;;5010429;28;20049;-92
2023/11/29 20:57:40;;;;;;;16.13;6.82;;;;;;;;;;5013032;28;20061;-91
2023/11/29 21:02:58;;;;;;;17.45;6.18;;;;;;;;;;4970093;28;20063;-91
2023/11/29 21:05:43;;;;;;;16.40;6.90;;;;;;;;;;4955129;28;20055;-88
2023/11/29 21:08:23;;;;;;;12.52;6.57;;;;;;;;;;4955460;28;20054;-90
2023/11/29 21:11:05;;;;;;;14.35;6.68;;;;;;;;;;4956831;29;20043;-92
2023/11/29 21:13:47;;;;;;;11.95;5.85;;;;;;;;;;4958924;28;20070;-91
2023/11/29 21:16:28;;;;;;;11.00;6.68;;;;;;;;;;4955526;29;20082;-92
2023/11/29 21:19:09;;;;;;;15.50;6.03;;;;;;;;;;4956007;29;20075;-92
2023/11/29 21:21:51;;;;;;;15.85;7.97;;;;;;;;;;4956787;29;20054;-92
2023/11/29 21:24:31;;;;;;;10.32;5.32;;;;;;;;;;4954515;28;20115;-92
2023/11/29 21:27:17;;;;;;;11.77;5.50;;;;;;;;;;4955656;29;20098;-92
2023/11/29 21:30:15;;;;;;;12.00;6.22;;;;;;;;;;4973728;28;20039;-91
2023/11/29 21:32:47;;;;;;;16.27;5.95;;;;;;;;;;4958262;29;20059;-92
2023/11/29 21:35:29;;;;;;;13.25;6.15;;;;;;;;;;4943861;29;20466;-91
2023/11/29 21:38:13;;;;;;;13.77;5.38;;;;;;;;;;4956578;29;20106;-91
2023/11/29 21:40:47;;;;;;;10.40;5.40;;;;;;;;;;4951330;29;20055;-92
2023/11/29 21:43:20;;;;;;;13.30;5.50;;;;;;;;;;4956602;29;20070;-92
2023/11/29 21:46:02;;;;;;;17.52;6.03;;;;;;;;;;4972847;29;20097;-91
2023/11/29 21:48:43;;;;;;;14.90;7.75;;;;;;;;;;4957327;28;20039;-91
2023/11/29 21:51:29;;;;;;;11.18;5.30;;;;;;;;;;4957850;29;20075;-91
2023/11/29 21:54:10;;;;;;;11.85;5.65;;;;;;;;;;4958644;29;20054;-92
2023/11/29 21:56:51;;;;;;;14.93;6.03;;;;;;;;;;4957084;29;20059;-93
2023/11/29 21:59:24;;;;;;;9.48;4.97;;;;;;;;;;4973366;28;20051;-92
2023/11/29 22:02:06;;;;;;;15.25;5.85;;;;;;;;;;4959480;28;20094;-91
2023/11/29 22:04:49;;;;;;;12.93;6.32;;;;;;;;;;4974869;28;20179;-92
2023/11/29 22:10:06;;;;;;;14.52;4.38;;;;;;;;;;5008402;23;20065;-91
2023/11/29 22:12:47;;;;;;;13.25;6.80;;;;;;;;;;4976954;28;20047;-93
2023/11/29 22:15:27;;;;;;;18.52;5.50;;;;;;;;;;4994147;28;20108;-93
2023/11/29 22:18:08;;;;;;;12.77;7.03;;;;;;;;;;4996274;28;20038;-90
2023/11/29 22:20:49;;;;;;;13.68;7.60;;;;;;;;;;4998793;28;20050;-91
2023/11/29 22:23:31;;;;;;;10.15;4.97;;;;;;;;;;4997405;28;20077;-91
2023/11/29 22:26:13;;;;;;;12.45;5.57;;;;;;;;;;4983687;28;20043;-90
2023/11/29 22:28:54;;;;;;;14.38;6.75;;;;;;;;;;4983217;28;20038;-92
2023/11/29 22:31:39;;;;;;;32.97;22.15;;;;;;;;;;4983792;28;20030;-90
2023/11/29 22:34:21;;;;;;;19.90;10.60;;;;;;;;;;4998644;28;20060;-91
2023/11/29 22:36:57;;;;;;;15.75;7.22;;;;;;;;;;4983478;28;20057;-92
2023/11/29 22:39:46;;;;;;;22.48;6.78;;;;;;;;;;4983068;28;20064;-92
2023/11/29 22:42:27;;;;;;;11.05;5.05;;;;;;;;;;4981649;28;20063;-91
2023/11/29 22:45:15;;;;;;;69.70;37.45;;;;;;;;;;4982039;28;20027;-92
2023/11/29 22:47:56;;;;;;;25.40;14.70;;;;;;;;;;4978917;28;20058;-91
2023/11/29 22:50:39;;;;;;;13.15;6.75;;;;;;;;;;4980693;28;20061;-91
2023/11/29 22:53:20;;;;;;;14.82;6.90;;;;;;;;;;4978596;28;20059;-93
2023/11/29 22:56:01;;;;;;;12.10;6.22;;;;;;;;;;4979312;28;20106;-91
2023/11/29 22:58:45;;;;;;;10.45;5.65;;;;;;;;;;4978735;28;20060;-91
2023/11/29 23:01:31;;;;;;;14.25;5.18;;;;;;;;;;4980527;28;20057;-91
2023/11/29 23:04:17;;;;;;;15.73;6.97;;;;;;;;;;4980660;28;20061;-91
2023/11/29 23:07:00;;;;;;;15.27;6.63;;;;;;;;;;4981327;28;20055;-90
2023/11/29 23:09:45;;;;;;;13.07;5.88;;;;;;;;;;4962428;28;20047;-92
2023/11/29 23:12:30;;;;;;;14.30;6.95;;;;;;;;;;4978374;28;20048;-89
2023/11/29 23:15:34;;;;;;;18.90;11.10;;;;;;;;;;4975875;28;20039;-92
2023/11/29 23:18:16;;;;;;;22.15;7.78;;;;;;;;;;4960091;28;20035;-92
2023/11/29 23:21:02;;;;;;;11.57;7.68;;;;;;;;;;4958259;29;20059;-92
2023/11/29 23:23:46;;;;;;;13.60;6.82;;;;;;;;;;4961234;28;20035;-92
2023/11/29 23:26:31;;;;;;;16.35;6.03;;;;;;;;;;4974179;28;20047;-91
2023/11/29 23:29:13;;;;;;;10.00;5.87;;;;;;;;;;4975019;28;20098;-91
2023/11/29 23:31:57;;;;;;;14.85;7.00;;;;;;;;;;4971035;28;20471;-91
2023/11/29 23:34:39;;;;;;;14.07;6.30;;;;;;;;;;4960471;28;20043;-92
2023/11/29 23:37:30;;;;;;;;;;;;;;;;;;;;;
2023/11/29 23:40:12;;;;;;;13.73;6.38;;;;;;;;;;4971316;28;20049;-92
2023/11/29 23:42:52;;;;;;;17.30;6.72;;;;;;;;;;4960511;29;20055;-91
2023/11/29 23:45:37;;;;;;;22.33;6.55;;;;;;;;;;4957988;28;20058;-92
2023/11/29 23:48:21;;;;;;;13.98;6.20;;;;;;;;;;4958646;28;20039;-91
2023/11/29 23:51:12;;;;;;;11.45;5.45;;;;;;;;;;4958016;28;20082;-92
2023/11/29 23:53:57;;;;;;;11.65;6.63;;;;;;;;;;4956620;29;20059;-93
2023/11/29 23:56:43;;;;;;;13.30;6.53;;;;;;;;;;4970164;28;20083;-92
2023/11/29 23:59:24;;;;;;;;;;;;;;;;;;4961781;28;20111;-91
